createdAt,value
2018-12-27T00:01:39.398Z,93.80
2018-12-27T00:04:08.748Z,93.60
2018-12-27T00:06:37.703Z,93.70
2018-12-27T00:09:07.694Z,93.60
2018-12-27T00:11:36.762Z,93.80
2018-12-27T00:14:05.940Z,93.80
2018-12-27T00:16:35.600Z,93.90
2018-12-27T00:19:04.634Z,93.90
2018-12-27T00:21:33.640Z,93.80
2018-12-27T00:24:02.586Z,93.90
2018-12-27T00:26:31.627Z,93.80
2018-12-27T00:29:01.011Z,93.80
2018-12-27T00:31:30.559Z,93.80
2018-12-27T00:33:59.941Z,93.80
2018-12-27T00:36:29.316Z,93.90
2018-12-27T00:38:58.766Z,93.80
2018-12-27T00:41:28.162Z,93.70
2018-12-27T00:43:57.508Z,93.60
2018-12-27T00:46:26.939Z,93.80
2018-12-27T00:48:56.301Z,93.70
2018-12-27T00:51:25.346Z,93.80
2018-12-27T00:53:54.422Z,93.60
2018-12-27T00:56:24.397Z,93.70
2018-12-27T00:58:53.464Z,93.80
2018-12-27T01:01:22.821Z,93.80
2018-12-27T01:03:51.839Z,93.70
2018-12-27T01:06:21.277Z,93.70
2018-12-27T01:08:50.663Z,93.70
2018-12-27T01:11:19.712Z,93.70
2018-12-27T01:13:49.031Z,93.90
2018-12-27T01:16:18.389Z,93.60
2018-12-27T01:18:47.787Z,93.70
2018-12-27T01:21:36.027Z,93.70
2018-12-27T01:24:24.456Z,93.60
2018-12-27T01:27:12.883Z,93.60
2018-12-27T01:30:01.013Z,93.60
2018-12-27T01:32:42.351Z,93.50
2018-12-27T01:35:23.471Z,93.60
2018-12-27T01:38:04.636Z,93.60
2018-12-27T01:40:45.336Z,93.50
2018-12-27T01:43:25.785Z,93.60
2018-12-27T01:46:06.486Z,93.50
2018-12-27T01:48:47.794Z,93.50
2018-12-27T01:51:28.768Z,93.50
2018-12-27T01:54:09.512Z,93.50
2018-12-27T01:56:49.953Z,93.80
2018-12-27T01:59:31.428Z,93.50
2018-12-27T02:02:12.713Z,93.50
2018-12-27T02:04:54.022Z,93.50
2018-12-27T02:07:34.628Z,93.50
2018-12-27T02:10:15.670Z,93.50
2018-12-27T02:12:56.267Z,93.50
2018-12-27T02:15:37.164Z,93.80
2018-12-27T02:18:18.111Z,93.70
2018-12-27T02:20:58.961Z,93.70
2018-12-27T02:23:40.262Z,93.70
2018-12-27T02:26:21.026Z,93.80
2018-12-27T02:29:02.117Z,93.90
2018-12-27T02:31:42.846Z,94.00
2018-12-27T02:34:23.571Z,94.20
2018-12-27T02:37:04.713Z,94.00
2018-12-27T02:42:27.371Z,94.40
2018-12-27T02:45:08.964Z,94.10
2018-12-27T02:47:49.757Z,94.20
2018-12-27T02:50:30.175Z,94.20
2018-12-27T02:53:10.982Z,94.30
2018-12-27T02:55:51.808Z,94.30
2018-12-27T02:58:32.820Z,94.40
2018-12-27T03:01:13.356Z,94.40
2018-12-27T03:03:54.571Z,94.40
2018-12-27T03:06:35.631Z,94.40
2018-12-27T03:09:16.651Z,94.40
2018-12-27T03:11:57.190Z,94.40
2018-12-27T03:14:38.213Z,94.40
2018-12-27T03:17:18.782Z,94.30
2018-12-27T03:19:59.252Z,94.20
2018-12-27T03:22:40.494Z,94.20
2018-12-27T03:25:21.681Z,93.80
2018-12-27T03:28:02.305Z,94.20
2018-12-27T03:30:43.194Z,94.20
2018-12-27T03:33:23.712Z,94.20
2018-12-27T03:36:04.702Z,94.30
2018-12-27T03:38:46.162Z,94.40
2018-12-27T03:41:27.871Z,94.50
2018-12-27T03:44:09.023Z,94.60
2018-12-27T03:46:49.787Z,94.70
2018-12-27T03:49:30.821Z,94.80
2018-12-27T03:52:12.163Z,94.90
2018-12-27T03:54:53.455Z,94.90
2018-12-27T03:57:34.400Z,95.00
2018-12-27T04:00:03.796Z,95.10
2018-12-27T04:02:51.942Z,95.20
2018-12-27T04:05:40.549Z,95.20
2018-12-27T04:08:28.675Z,95.30
2018-12-27T04:11:16.811Z,95.40
2018-12-27T04:14:04.979Z,95.30
2018-12-27T04:16:53.542Z,95.30
2018-12-27T04:19:41.634Z,95.30
2018-12-27T04:22:30.034Z,95.30
2018-12-27T04:25:18.476Z,95.30
2018-12-27T04:28:06.922Z,95.40
2018-12-27T04:30:55.040Z,95.50
2018-12-27T04:33:35.670Z,95.50
2018-12-27T04:36:16.005Z,95.60
2018-12-27T04:38:57.384Z,95.70
2018-12-27T04:41:37.838Z,95.70
2018-12-27T04:44:19.299Z,95.90
2018-12-27T04:47:00.100Z,95.80
2018-12-27T04:49:39.271Z,96.00
2018-12-27T04:52:27.597Z,95.90
2018-12-27T04:55:16.912Z,96.10
2018-12-27T04:58:05.057Z,96.10
2018-12-27T05:00:53.481Z,96.00
2018-12-27T05:03:41.935Z,96.10
2018-12-27T05:06:30.031Z,96.10
2018-12-27T05:09:18.417Z,96.10
2018-12-27T05:12:06.923Z,96.10
2018-12-27T05:14:54.960Z,96.10
2018-12-27T05:17:43.044Z,96.10
2018-12-27T05:20:31.545Z,96.00
2018-12-27T05:23:19.608Z,96.00
2018-12-27T05:26:07.685Z,96.00
2018-12-27T05:28:55.765Z,96.00
2018-12-27T05:31:43.915Z,95.90
2018-12-27T05:34:26.383Z,95.80
2018-12-27T05:37:07.508Z,96.00
2018-12-27T05:39:48.174Z,96.20
2018-12-27T05:42:28.748Z,96.00
2018-12-27T05:45:09.502Z,96.00
2018-12-27T05:47:50.175Z,96.10
2018-12-27T05:50:31.135Z,96.10
2018-12-27T05:53:11.883Z,96.20
2018-12-27T05:55:52.292Z,96.20
2018-12-27T05:58:32.778Z,96.20
2018-12-27T06:01:13.640Z,96.30
2018-12-27T06:03:54.266Z,96.20
2018-12-27T06:06:35.324Z,96.30
2018-12-27T06:09:16.176Z,96.30
2018-12-27T06:11:56.780Z,96.30
2018-12-27T06:14:37.555Z,96.20
2018-12-27T06:17:18.399Z,96.30
2018-12-27T06:19:59.117Z,96.30
2018-12-27T06:22:39.891Z,96.40
2018-12-27T06:25:20.628Z,96.40
2018-12-27T06:28:01.655Z,96.30
2018-12-27T06:30:42.178Z,96.50
2018-12-27T06:33:23.033Z,96.40
2018-12-27T06:36:03.913Z,96.50
2018-12-27T06:38:33.123Z,96.50
2018-12-27T06:41:21.282Z,96.50
2018-12-27T06:44:09.445Z,96.60
2018-12-27T06:46:57.848Z,96.60
2018-12-27T06:49:45.930Z,96.70
2018-12-27T06:52:34.354Z,96.80
2018-12-27T06:55:22.583Z,96.80
2018-12-27T06:58:37.590Z,96.70
2018-12-27T07:01:19.783Z,96.80
2018-12-27T07:04:08.135Z,96.90
2018-12-27T07:06:56.655Z,96.80
2018-12-27T07:09:44.784Z,96.80
2018-12-27T07:12:32.855Z,96.90
2018-12-27T07:15:21.019Z,96.80
2018-12-27T07:18:09.413Z,96.90
2018-12-27T07:20:57.805Z,96.70
2018-12-27T07:23:45.962Z,96.80
2018-12-27T07:26:34.085Z,96.70
2018-12-27T07:29:22.165Z,96.70
2018-12-27T07:32:02.686Z,96.80
2018-12-27T07:34:43.551Z,96.70
2018-12-27T07:37:24.401Z,96.60
2018-12-27T07:40:05.205Z,96.60
2018-12-27T07:42:46.022Z,96.60
2018-12-27T07:45:26.491Z,96.60
2018-12-27T07:48:07.339Z,96.60
2018-12-27T07:50:47.732Z,96.60
2018-12-27T07:53:28.384Z,96.40
2018-12-27T07:56:09.152Z,96.40
2018-12-27T07:58:49.845Z,96.40
2018-12-27T08:01:30.772Z,96.40
2018-12-27T08:04:11.514Z,96.30
2018-12-27T08:06:51.998Z,96.10
2018-12-27T08:09:33.605Z,96.10
2018-12-27T08:12:14.429Z,95.90
2018-12-27T08:14:55.330Z,95.90
2018-12-27T08:17:36.034Z,95.70
2018-12-27T08:20:16.919Z,95.20
2018-12-27T08:22:58.464Z,95.30
2018-12-27T08:25:39.018Z,94.80
2018-12-27T08:31:01.850Z,94.60
2018-12-27T08:33:42.813Z,94.30
2018-12-27T08:36:23.416Z,94.10
2018-12-27T08:39:04.917Z,94.40
2018-12-27T08:50:27.619Z,93.40
2018-12-27T08:53:08.980Z,93.30
2018-12-27T08:55:49.614Z,93.50
2018-12-27T08:58:30.534Z,93.00
2018-12-27T09:01:11.586Z,93.30
2018-12-27T09:03:52.372Z,92.80
2018-12-27T09:06:34.119Z,92.40
2018-12-27T09:09:14.747Z,92.40
2018-12-27T09:11:56.185Z,92.40
2018-12-27T09:14:36.880Z,92.40
2018-12-27T09:17:17.837Z,92.20
2018-12-27T09:19:59.244Z,92.20
2018-12-27T09:22:40.129Z,92.20
2018-12-27T09:28:10.391Z,92.10
2018-12-27T09:30:51.809Z,92.00
2018-12-27T09:33:33.705Z,92.20
2018-12-27T09:36:14.983Z,92.20
2018-12-27T09:38:55.837Z,92.20
2018-12-27T09:41:36.564Z,92.20
2018-12-27T09:44:16.109Z,92.10
2018-12-27T09:47:38.478Z,92.10
2018-12-27T09:49:57.243Z,91.90
2018-12-27T09:52:26.538Z,92.10
2018-12-27T09:54:56.120Z,92.10
2018-12-27T09:57:25.154Z,91.80
2018-12-27T09:59:54.504Z,91.70
2018-12-27T10:02:24.321Z,91.60
2018-12-27T10:04:53.626Z,91.40
2018-12-27T10:07:23.212Z,91.20
2018-12-27T10:09:52.743Z,90.70
2018-12-27T10:12:22.600Z,90.70
2018-12-27T10:14:52.510Z,90.60
2018-12-27T10:17:21.806Z,91.10
2018-12-27T10:19:50.756Z,90.40
2018-12-27T10:22:20.022Z,90.50
2018-12-27T10:24:48.921Z,90.30
2018-12-27T10:27:17.907Z,90.60
2018-12-27T10:29:47.654Z,90.40
2018-12-27T10:32:17.427Z,90.30
2018-12-27T10:34:47.272Z,90.10
2018-12-27T10:37:16.320Z,89.90
2018-12-27T10:39:45.980Z,90.00
2018-12-27T10:42:15.747Z,89.70
2018-12-27T10:44:45.677Z,89.70
2018-12-27T10:47:14.960Z,90.00
2018-12-27T10:49:44.169Z,89.70
2018-12-27T10:52:13.229Z,89.10
2018-12-27T10:54:42.685Z,88.60
2018-12-27T10:57:12.404Z,88.50
2018-12-27T10:59:41.708Z,88.10
2018-12-27T11:02:11.105Z,88.40
2018-12-27T11:04:40.484Z,88.20
2018-12-27T11:07:09.416Z,88.00
2018-12-27T11:09:38.429Z,87.80
2018-12-27T11:12:10.521Z,87.80
2018-12-27T11:14:39.808Z,87.60
2018-12-27T11:17:08.768Z,88.10
2018-12-27T11:19:37.755Z,88.00
2018-12-27T11:22:07.256Z,88.10
2018-12-27T11:24:36.704Z,87.60
2018-12-27T11:27:05.892Z,87.50
2018-12-27T11:29:35.070Z,87.00
2018-12-27T11:32:04.766Z,86.30
2018-12-27T11:34:33.920Z,86.60
2018-12-27T11:37:02.952Z,86.30
2018-12-27T11:39:31.948Z,86.10
2018-12-27T11:42:01.408Z,85.90
2018-12-27T11:44:30.723Z,86.00
2018-12-27T11:46:59.781Z,86.00
2018-12-27T11:49:28.647Z,86.60
2018-12-27T11:51:57.585Z,85.80
2018-12-27T11:54:26.893Z,85.80
2018-12-27T11:56:56.225Z,85.40
2018-12-27T11:59:25.320Z,85.30
2018-12-27T12:01:54.214Z,85.50
2018-12-27T12:04:23.252Z,85.20
2018-12-27T12:06:52.424Z,85.40
2018-12-27T12:09:21.737Z,85.40
2018-12-27T12:11:50.735Z,84.80
2018-12-27T12:14:19.976Z,84.80
2018-12-27T12:16:49.346Z,84.80
2018-12-27T12:19:18.338Z,85.00
2018-12-27T12:21:47.294Z,84.50
2018-12-27T12:24:16.696Z,84.00
2018-12-27T12:26:46.187Z,84.00
2018-12-27T12:29:15.300Z,83.70
2018-12-27T12:31:44.613Z,84.10
2018-12-27T12:34:13.660Z,84.00
2018-12-27T12:36:43.403Z,83.70
2018-12-27T12:39:12.689Z,83.30
2018-12-27T12:41:41.788Z,83.20
2018-12-27T12:44:11.616Z,83.70
2018-12-27T12:46:40.915Z,83.20
2018-12-27T12:49:10.178Z,82.30
2018-12-27T12:51:39.422Z,82.90
2018-12-27T12:54:08.479Z,83.20
2018-12-27T12:56:37.497Z,83.40
2018-12-27T12:59:06.632Z,83.00
2018-12-27T13:01:36.112Z,83.00
2018-12-27T13:04:05.262Z,83.20
2018-12-27T13:06:34.692Z,83.10
2018-12-27T13:09:05.548Z,82.80
2018-12-27T13:11:34.616Z,82.50
2018-12-27T13:14:03.622Z,82.40
2018-12-27T13:16:33.111Z,82.60
2018-12-27T13:19:02.847Z,81.80
2018-12-27T13:21:31.828Z,81.80
2018-12-27T13:24:01.352Z,81.40
2018-12-27T13:26:30.423Z,81.20
2018-12-27T13:28:59.404Z,81.30
2018-12-27T13:31:28.343Z,81.60
2018-12-27T13:33:57.746Z,81.90
2018-12-27T13:36:26.805Z,82.00
2018-12-27T13:38:55.916Z,81.80
2018-12-27T13:41:25.183Z,81.40
2018-12-27T13:43:54.403Z,81.40
2018-12-27T13:46:42.598Z,81.40
2018-12-27T13:49:11.833Z,81.00
2018-12-27T13:51:40.824Z,81.20
2018-12-27T13:54:10.156Z,81.40
2018-12-27T13:56:39.157Z,82.00
2018-12-27T13:59:08.023Z,81.20
2018-12-27T14:01:37.037Z,81.30
2018-12-27T14:04:06.037Z,81.00
2018-12-27T14:06:34.959Z,80.90
2018-12-27T14:09:05.136Z,80.80
2018-12-27T14:11:34.158Z,80.70
2018-12-27T14:14:03.208Z,80.40
2018-12-27T14:16:32.335Z,80.20
2018-12-27T14:19:01.362Z,80.00
2018-12-27T14:21:30.378Z,80.00
2018-12-27T14:24:00.062Z,80.40
2018-12-27T14:26:29.703Z,80.40
2018-12-27T14:28:58.788Z,80.10
2018-12-27T14:31:27.900Z,80.10
2018-12-27T14:33:56.893Z,80.20
2018-12-27T14:36:26.182Z,80.20
2018-12-27T14:38:55.791Z,80.40
2018-12-27T14:41:25.091Z,80.50
2018-12-27T14:43:54.019Z,80.60
2018-12-27T14:46:23.171Z,81.20
2018-12-27T14:48:52.179Z,81.50
2018-12-27T14:51:21.124Z,81.90
2018-12-27T14:53:50.018Z,82.40
2018-12-27T14:56:19.070Z,82.60
2018-12-27T14:58:48.054Z,82.40
2018-12-27T15:01:17.167Z,82.60
2018-12-27T15:03:46.266Z,83.10
2018-12-27T15:06:15.705Z,83.50
2018-12-27T15:08:44.765Z,83.40
2018-12-27T15:11:14.365Z,83.70
2018-12-27T15:13:43.620Z,83.40
2018-12-27T15:16:12.924Z,83.30
2018-12-27T15:18:42.415Z,83.60
2018-12-27T15:21:11.726Z,83.60
2018-12-27T15:23:40.995Z,83.90
2018-12-27T15:26:10.101Z,84.00
2018-12-27T15:28:39.161Z,84.10
2018-12-27T15:31:08.188Z,84.20
2018-12-27T15:33:37.850Z,84.60
2018-12-27T15:36:06.774Z,84.60
2018-12-27T15:38:35.745Z,84.80
2018-12-27T15:41:04.817Z,84.90
2018-12-27T15:43:33.855Z,85.10
2018-12-27T15:46:03.163Z,85.30
2018-12-27T15:48:32.528Z,85.40
2018-12-27T15:51:01.857Z,85.40
2018-12-27T15:53:30.824Z,85.50
2018-12-27T15:56:00.249Z,85.70
2018-12-27T15:58:29.244Z,86.00
2018-12-27T16:00:59.009Z,86.10
2018-12-27T16:03:28.046Z,86.20
2018-12-27T16:05:57.130Z,86.40
2018-12-27T16:08:26.559Z,86.50
2018-12-27T16:10:55.452Z,86.50
2018-12-27T16:13:24.904Z,86.80
2018-12-27T16:15:53.844Z,87.10
2018-12-27T16:18:23.095Z,87.30
2018-12-27T16:20:52.377Z,87.30
2018-12-27T16:23:21.345Z,87.30
2018-12-27T16:25:50.451Z,87.40
2018-12-27T16:28:19.804Z,87.80
2018-12-27T16:30:49.174Z,88.00
2018-12-27T16:33:18.588Z,88.00
2018-12-27T16:35:47.944Z,88.10
2018-12-27T16:38:16.969Z,88.10
2018-12-27T16:40:46.798Z,88.50
2018-12-27T16:43:15.850Z,88.40
2018-12-27T16:45:44.905Z,88.50
2018-12-27T16:48:13.800Z,88.60
2018-12-27T16:50:43.127Z,88.60
2018-12-27T16:53:12.025Z,88.50
2018-12-27T16:55:41.485Z,89.00
2018-12-27T16:58:10.492Z,88.80
2018-12-27T17:00:39.466Z,88.90
2018-12-27T17:03:08.508Z,88.90
2018-12-27T17:05:37.955Z,88.90
2018-12-27T17:08:07.313Z,88.80
2018-12-27T17:10:36.559Z,88.90
2018-12-27T17:13:05.484Z,88.60
2018-12-27T17:15:34.450Z,89.10
2018-12-27T17:18:03.938Z,89.40
2018-12-27T17:20:33.228Z,89.20
2018-12-27T17:23:02.416Z,89.30
2018-12-27T17:25:31.433Z,89.20
2018-12-27T17:28:00.502Z,89.40
2018-12-27T17:30:29.980Z,89.40
2018-12-27T17:32:59.688Z,89.60
2018-12-27T17:35:28.914Z,89.40
2018-12-27T17:37:59.110Z,89.30
2018-12-27T17:40:28.571Z,89.20
2018-12-27T17:42:57.654Z,89.40
2018-12-27T17:45:27.273Z,89.20
2018-12-27T17:47:56.498Z,89.40
2018-12-27T17:50:25.456Z,89.60
2018-12-27T17:52:54.699Z,89.50
2018-12-27T17:55:23.959Z,89.70
2018-12-27T17:57:53.993Z,89.80
2018-12-27T18:00:23.390Z,89.90
2018-12-27T18:02:52.752Z,90.10
2018-12-27T18:05:21.812Z,90.00
2018-12-27T18:07:50.874Z,90.10
2018-12-27T18:10:19.910Z,90.00
2018-12-27T18:12:48.970Z,90.00
2018-12-27T18:15:17.921Z,90.00
2018-12-27T18:17:46.997Z,90.00
2018-12-27T18:20:16.375Z,89.60
2018-12-27T18:22:45.440Z,89.60
2018-12-27T18:25:14.731Z,89.70
2018-12-27T18:27:44.056Z,89.80
2018-12-27T18:30:13.098Z,90.00
2018-12-27T18:32:42.397Z,89.90
2018-12-27T18:35:11.728Z,89.80
2018-12-27T18:37:40.701Z,89.70
2018-12-27T18:40:09.718Z,89.70
2018-12-27T18:42:38.820Z,89.80
2018-12-27T18:45:08.527Z,89.60
2018-12-27T18:47:37.581Z,89.80
2018-12-27T18:50:07.110Z,89.90
2018-12-27T18:52:36.620Z,90.00
2018-12-27T18:55:05.789Z,89.90
2018-12-27T18:57:34.857Z,89.80
2018-12-27T19:00:04.934Z,89.70
2018-12-27T19:02:33.884Z,89.70
2018-12-27T19:05:02.952Z,89.90
2018-12-27T19:07:31.833Z,89.60
2018-12-27T19:10:00.688Z,89.50
2018-12-27T19:13:07.364Z,89.60
2018-12-27T19:15:49.164Z,89.50
2018-12-27T19:18:31.590Z,89.30
2018-12-27T19:21:05.806Z,89.30
2018-12-27T19:23:34.858Z,89.30
2018-12-27T19:26:03.902Z,89.50
2018-12-27T19:28:33.688Z,89.40
2018-12-27T19:31:02.727Z,89.60
2018-12-27T19:33:31.860Z,89.90
2018-12-27T19:36:00.900Z,90.00
2018-12-27T19:38:29.925Z,90.00
2018-12-27T19:40:59.265Z,90.00
2018-12-27T19:43:28.197Z,90.00
2018-12-27T19:45:57.219Z,90.00
2018-12-27T19:48:26.211Z,90.00
2018-12-27T19:50:56.470Z,89.80
2018-12-27T19:53:25.484Z,90.00
2018-12-27T19:55:54.533Z,89.80
2018-12-27T19:58:24.573Z,89.80
2018-12-27T20:00:53.555Z,89.90
2018-12-27T20:03:23.092Z,90.00
2018-12-27T20:05:52.172Z,90.00
2018-12-27T20:08:21.068Z,90.00
2018-12-27T20:10:50.151Z,90.00
2018-12-27T20:13:19.570Z,90.00
2018-12-27T20:15:48.723Z,89.80
2018-12-27T20:18:17.749Z,90.00
2018-12-27T20:20:46.942Z,90.00
2018-12-27T20:23:15.977Z,90.30
2018-12-27T20:25:45.034Z,90.00
2018-12-27T20:28:14.528Z,90.10
2018-12-27T20:30:43.536Z,90.10
2018-12-27T20:33:12.618Z,90.10
2018-12-27T20:35:41.709Z,90.10
2018-12-27T20:38:10.684Z,90.10
2018-12-27T20:40:40.076Z,90.00
2018-12-27T20:43:09.441Z,90.00
2018-12-27T20:45:38.527Z,90.10
2018-12-27T20:48:07.425Z,90.00
2018-12-27T20:50:36.448Z,89.40
2018-12-27T20:53:05.715Z,89.20
2018-12-27T20:55:34.995Z,89.20
2018-12-27T20:58:04.234Z,89.00
2018-12-27T21:00:33.309Z,89.10
2018-12-27T21:03:02.434Z,89.20
2018-12-27T21:05:31.424Z,89.30
2018-12-27T21:08:00.472Z,89.50
2018-12-27T21:10:29.817Z,89.40
2018-12-27T21:12:59.290Z,89.50
2018-12-27T21:15:28.809Z,89.60
2018-12-27T21:17:57.809Z,89.90
2018-12-27T21:20:27.087Z,90.00
2018-12-27T21:22:56.472Z,90.10
2018-12-27T21:25:25.467Z,90.20
2018-12-27T21:27:54.481Z,90.30
2018-12-27T21:30:23.464Z,90.50
2018-12-27T21:32:52.646Z,90.60
2018-12-27T21:35:21.633Z,90.70
2018-12-27T21:37:50.764Z,90.70
2018-12-27T21:40:19.761Z,90.90
2018-12-27T21:42:49.094Z,90.90
2018-12-27T21:45:18.242Z,91.00
2018-12-27T21:47:47.366Z,91.00
2018-12-27T21:50:16.529Z,91.10
2018-12-27T21:52:45.522Z,91.10
2018-12-27T21:55:14.570Z,91.10
2018-12-27T21:57:43.637Z,91.10
2018-12-27T22:00:12.663Z,91.20
2018-12-27T22:02:41.660Z,91.10
2018-12-27T22:05:11.112Z,91.20
2018-12-27T22:07:40.540Z,91.20
2018-12-27T22:10:10.218Z,91.20
2018-12-27T22:12:39.777Z,91.30
2018-12-27T22:15:09.118Z,91.00
2018-12-27T22:17:38.166Z,91.30
2018-12-27T22:20:07.227Z,91.30
2018-12-27T22:22:36.895Z,91.50
2018-12-27T22:25:06.213Z,91.60
2018-12-27T22:27:35.305Z,91.70
2018-12-27T22:30:05.053Z,91.60
2018-12-27T22:32:34.219Z,91.40
2018-12-27T22:35:03.593Z,91.40
2018-12-27T22:37:33.151Z,91.50
2018-12-27T22:40:02.167Z,91.50
2018-12-27T22:42:31.227Z,91.50
2018-12-27T22:45:00.288Z,91.50
2018-12-27T22:47:29.620Z,91.50
2018-12-27T22:49:58.669Z,91.50
2018-12-27T22:52:27.889Z,91.30
2018-12-27T22:54:57.083Z,91.20
2018-12-27T22:57:26.387Z,91.20
2018-12-27T22:59:55.760Z,91.30
2018-12-27T23:02:24.960Z,91.20
2018-12-27T23:04:54.504Z,91.10
2018-12-27T23:07:23.587Z,91.10
2018-12-27T23:09:52.657Z,91.20
2018-12-27T23:12:22.009Z,91.40
2018-12-27T23:14:51.018Z,91.30
2018-12-27T23:17:20.431Z,91.30
2018-12-27T23:19:49.487Z,91.30
2018-12-27T23:22:19.068Z,91.30
2018-12-27T23:24:48.032Z,91.30
2018-12-27T23:27:17.267Z,91.20
2018-12-27T23:29:46.361Z,91.20
2018-12-27T23:32:15.511Z,91.10
2018-12-27T23:34:44.510Z,91.30
2018-12-27T23:37:14.199Z,91.30
2018-12-27T23:39:43.601Z,91.30
2018-12-27T23:42:12.822Z,91.30
2018-12-27T23:44:41.899Z,91.50
2018-12-27T23:47:10.955Z,91.50
2018-12-27T23:49:39.934Z,91.50
2018-12-27T23:52:09.062Z,91.50
2018-12-27T23:54:38.226Z,91.70
2018-12-27T23:57:07.755Z,91.50
2018-12-27T23:59:37.351Z,91.50
